sensor_id;sensor_type;location;lat;lon;timestamp;pressure;altitude;pressure_sealevel;temperature;humidity
24160;BME280;62385;41.594;23.808;2023-03-20T00:01:24;95892.25;;;4.93;62.59
24160;BME280;62385;41.594;23.808;2023-03-20T00:03:55;95891.75;;;4.99;62.57
24160;BME280;62385;41.594;23.808;2023-03-20T00:06:26;95878.09;;;4.84;62.18
24160;BME280;62385;41.594;23.808;2023-03-20T00:08:54;95877.91;;;4.65;63.75
24160;BME280;62385;41.594;23.808;2023-03-20T00:14:12;95879.47;;;4.68;63.86
24160;BME280;62385;41.594;23.808;2023-03-20T00:16:40;95878.31;;;4.81;62.94
24160;BME280;62385;41.594;23.808;2023-03-20T00:19:16;95873.97;;;4.71;63.03
24160;BME280;62385;41.594;23.808;2023-03-20T00:21:44;95872.56;;;4.87;62.40
24160;BME280;62385;41.594;23.808;2023-03-20T00:24:11;95877.88;;;4.76;62.40
24160;BME280;62385;41.594;23.808;2023-03-20T00:26:37;95864.69;;;4.55;63.13
24160;BME280;62385;41.594;23.808;2023-03-20T00:29:04;95868.97;;;4.56;63.54
24160;BME280;62385;41.594;23.808;2023-03-20T00:31:38;95867.97;;;4.69;63.25
24160;BME280;62385;41.594;23.808;2023-03-20T00:34:08;95863.88;;;4.55;63.95
24160;BME280;62385;41.594;23.808;2023-03-20T00:36:34;95867.22;;;4.46;64.00
24160;BME280;62385;41.594;23.808;2023-03-20T00:39:00;95850.19;;;4.29;64.43
24160;BME280;62385;41.594;23.808;2023-03-20T00:41:50;95850.47;;;4.15;65.32
24160;BME280;62385;41.594;23.808;2023-03-20T00:44:26;95853.66;;;4.30;64.21
24160;BME280;62385;41.594;23.808;2023-03-20T00:46:57;95856.25;;;4.41;63.75
24160;BME280;62385;41.594;23.808;2023-03-20T00:49:26;95857.97;;;4.62;63.83
24160;BME280;62385;41.594;23.808;2023-03-20T00:51:53;95859.50;;;4.65;63.53
24160;BME280;62385;41.594;23.808;2023-03-20T00:54:18;95859.50;;;4.65;63.52
24160;BME280;62385;41.594;23.808;2023-03-20T00:59:40;95849.63;;;4.57;63.31
24160;BME280;62385;41.594;23.808;2023-03-20T01:02:06;95850.41;;;4.69;62.79
24160;BME280;62385;41.594;23.808;2023-03-20T01:04:39;95863.88;;;4.55;63.58
24160;BME280;62385;41.594;23.808;2023-03-20T01:07:06;95861.63;;;4.39;63.26
24160;BME280;62385;41.594;23.808;2023-03-20T01:09:32;95843.53;;;4.25;62.98
24160;BME280;62385;41.594;23.808;2023-03-20T01:12:02;95868.56;;;4.40;63.08
24160;BME280;62385;41.594;23.808;2023-03-20T01:14:29;95862.31;;;4.09;64.20
24160;BME280;62385;41.594;23.808;2023-03-20T01:16:55;95857.78;;;4.00;63.85
24160;BME280;62385;41.594;23.808;2023-03-20T01:19:20;95865.56;;;3.46;65.74
24160;BME280;62385;41.594;23.808;2023-03-20T01:21:46;95861.97;;;3.69;65.52
24160;BME280;62385;41.594;23.808;2023-03-20T01:24:12;95854.69;;;3.73;65.05
24160;BME280;62385;41.594;23.808;2023-03-20T01:26:42;95858.41;;;3.37;67.08
24160;BME280;62385;41.594;23.808;2023-03-20T01:29:23;95861.25;;;3.79;65.85
24160;BME280;62385;41.594;23.808;2023-03-20T01:31:50;95856.00;;;3.90;65.53
24160;BME280;62385;41.594;23.808;2023-03-20T01:34:18;95859.84;;;3.63;66.13
24160;BME280;62385;41.594;23.808;2023-03-20T01:36:55;95859.72;;;3.76;64.78
24160;BME280;62385;41.594;23.808;2023-03-20T01:39:33;95854.84;;;3.71;65.01
24160;BME280;62385;41.594;23.808;2023-03-20T01:42:01;95854.81;;;3.49;66.29
24160;BME280;62385;41.594;23.808;2023-03-20T01:44:30;95849.69;;;3.59;65.97
24160;BME280;62385;41.594;23.808;2023-03-20T01:46:58;95850.41;;;3.61;65.95
24160;BME280;62385;41.594;23.808;2023-03-20T01:51:53;95862.75;;;3.03;67.61
24160;BME280;62385;41.594;23.808;2023-03-20T01:54:24;95849.56;;;3.38;66.55
24160;BME280;62385;41.594;23.808;2023-03-20T01:57:10;95846.81;;;3.40;66.72
24160;BME280;62385;41.594;23.808;2023-03-20T01:59:47;95854.34;;;3.33;67.36
24160;BME280;62385;41.594;23.808;2023-03-20T02:02:20;95852.47;;;3.68;65.76
24160;BME280;62385;41.594;23.808;2023-03-20T02:04:50;95838.72;;;3.65;65.24
24160;BME280;62385;41.594;23.808;2023-03-20T02:07:20;95840.63;;;3.63;65.29
24160;BME280;62385;41.594;23.808;2023-03-20T02:09:56;95844.34;;;3.71;65.33
24160;BME280;62385;41.594;23.808;2023-03-20T02:12:37;95849.44;;;3.73;64.50
24160;BME280;62385;41.594;23.808;2023-03-20T02:15:25;95846.47;;;3.44;65.78
24160;BME280;62385;41.594;23.808;2023-03-20T02:18:10;95851.00;;;3.42;66.30
24160;BME280;62385;41.594;23.808;2023-03-20T02:42:38;95846.81;;;3.40;66.98
24160;BME280;62385;41.594;23.808;2023-03-20T02:45:15;95836.22;;;3.63;65.58
24160;BME280;62385;41.594;23.808;2023-03-20T02:47:52;95844.59;;;3.68;64.96
24160;BME280;62385;41.594;23.808;2023-03-20T02:55:47;95856.00;;;3.45;66.11
24160;BME280;62385;41.594;23.808;2023-03-20T02:58:30;95849.47;;;3.51;65.25
24160;BME280;62385;41.594;23.808;2023-03-20T03:01:10;95848.75;;;3.27;65.71
24160;BME280;62385;41.594;23.808;2023-03-20T03:03:45;95847.91;;;2.69;67.70
24160;BME280;62385;41.594;23.808;2023-03-20T03:08:59;95839.84;;;2.94;66.90
24160;BME280;62385;41.594;23.808;2023-03-20T03:11:26;95850.69;;;2.90;67.52
24160;BME280;62385;41.594;23.808;2023-03-20T03:13:54;95848.84;;;3.14;67.04
24160;BME280;62385;41.594;23.808;2023-03-20T03:16:26;95849.78;;;3.02;66.37
24160;BME280;62385;41.594;23.808;2023-03-20T03:19:04;95848.25;;;3.44;65.38
24160;BME280;62385;41.594;23.808;2023-03-20T03:21:35;95848.38;;;3.31;66.04
24160;BME280;62385;41.594;23.808;2023-03-20T03:24:02;95842.41;;;3.62;64.50
24160;BME280;62385;41.594;23.808;2023-03-20T03:26:32;95843.25;;;3.30;65.02
24160;BME280;62385;41.594;23.808;2023-03-20T03:29:13;95848.53;;;2.84;66.14
24160;BME280;62385;41.594;23.808;2023-03-20T03:31:40;95851.06;;;2.61;67.95
24160;BME280;62385;41.594;23.808;2023-03-20T03:34:11;95865.19;;;2.48;68.08
24160;BME280;62385;41.594;23.808;2023-03-20T03:41:56;95859.94;;;2.71;67.40
24160;BME280;62385;41.594;23.808;2023-03-20T03:44:55;95851.75;;;2.52;68.70
24160;BME280;62385;41.594;23.808;2023-03-20T03:47:31;95851.78;;;2.63;67.25
24160;BME280;62385;41.594;23.808;2023-03-20T03:50:10;95849.47;;;2.24;68.59
24160;BME280;62385;41.594;23.808;2023-03-20T03:52:40;95853.47;;;2.64;67.55
24160;BME280;62385;41.594;23.808;2023-03-20T03:55:10;95844.69;;;2.76;67.14
24160;BME280;62385;41.594;23.808;2023-03-20T03:58:00;95853.31;;;2.90;67.18
24160;BME280;62385;41.594;23.808;2023-03-20T04:00:31;95862.47;;;2.84;67.59
24160;BME280;62385;41.594;23.808;2023-03-20T04:02:58;95856.06;;;2.99;66.76
24160;BME280;62385;41.594;23.808;2023-03-20T04:05:43;95852.94;;;2.94;67.42
24160;BME280;62385;41.594;23.808;2023-03-20T04:08:10;95860.59;;;2.62;69.19
24160;BME280;62385;41.594;23.808;2023-03-20T04:10:39;95844.69;;;2.76;68.61
24160;BME280;62385;41.594;23.808;2023-03-20T04:13:07;95842.94;;;2.53;69.10
24160;BME280;62385;41.594;23.808;2023-03-20T04:15:33;95838.09;;;2.60;69.06
24160;BME280;62385;41.594;23.808;2023-03-20T04:17:59;95829.75;;;2.66;69.00
24160;BME280;62385;41.594;23.808;2023-03-20T04:20:25;95824.63;;;3.10;67.03
24160;BME280;62385;41.594;23.808;2023-03-20T04:22:51;95833.94;;;3.14;67.25
24160;BME280;62385;41.594;23.808;2023-03-20T04:25:20;95830.03;;;3.31;66.36
24160;BME280;62385;41.594;23.808;2023-03-20T04:27:48;95830.22;;;3.06;66.38
24160;BME280;62385;41.594;23.808;2023-03-20T04:30:37;95815.94;;;3.32;65.62
24160;BME280;62385;41.594;23.808;2023-03-20T04:33:26;95832.38;;;3.23;65.79
24160;BME280;62385;41.594;23.808;2023-03-20T04:36:12;95828.34;;;3.30;65.37
24160;BME280;62385;41.594;23.808;2023-03-20T04:38:56;95850.38;;;3.28;65.97
24160;BME280;62385;41.594;23.808;2023-03-20T04:41:22;95841.84;;;3.48;65.47
24160;BME280;62385;41.594;23.808;2023-03-20T04:43:52;95838.47;;;3.46;65.61
24160;BME280;62385;41.594;23.808;2023-03-20T04:46:17;95846.22;;;3.25;66.29
24160;BME280;62385;41.594;23.808;2023-03-20T04:48:43;95846.81;;;3.40;66.17
24160;BME280;62385;41.594;23.808;2023-03-20T04:51:10;95850.28;;;3.29;66.93
24160;BME280;62385;41.594;23.808;2023-03-20T04:53:43;95855.72;;;3.15;66.98
24160;BME280;62385;41.594;23.808;2023-03-20T04:56:09;95857.06;;;3.32;66.90
24160;BME280;62385;41.594;23.808;2023-03-20T04:58:35;95848.72;;;3.82;65.99
24160;BME280;62385;41.594;23.808;2023-03-20T05:01:02;95855.78;;;3.70;65.51
24160;BME280;62385;41.594;23.808;2023-03-20T05:03:28;95835.38;;;3.41;66.52
24160;BME280;62385;41.594;23.808;2023-03-20T05:05:53;95858.75;;;3.33;66.38
24160;BME280;62385;41.594;23.808;2023-03-20T05:08:19;95856.72;;;3.92;64.99
24160;BME280;62385;41.594;23.808;2023-03-20T05:10:45;95850.25;;;4.07;64.29
24160;BME280;62385;41.594;23.808;2023-03-20T05:13:34;95848.13;;;3.90;64.07
24160;BME280;62385;41.594;23.808;2023-03-20T05:16:38;95855.31;;;4.42;62.94
24160;BME280;62385;41.594;23.808;2023-03-20T05:19:14;95851.09;;;4.50;62.74
24160;BME280;62385;41.594;23.808;2023-03-20T05:22:07;95848.31;;;4.52;62.87
24160;BME280;62385;41.594;23.808;2023-03-20T05:24:51;95856.03;;;4.64;63.33
24160;BME280;62385;41.594;23.808;2023-03-20T05:27:23;95856.25;;;4.73;62.91
24160;BME280;62385;41.594;23.808;2023-03-20T05:30:09;95860.47;;;4.96;62.03
24160;BME280;62385;41.594;23.808;2023-03-20T05:32:50;95860.69;;;4.93;62.33
24160;BME280;62385;41.594;23.808;2023-03-20T05:35:39;95863.97;;;5.06;61.90
24160;BME280;62385;41.594;23.808;2023-03-20T05:38:33;95867.13;;;5.00;62.64
24160;BME280;62385;41.594;23.808;2023-03-20T05:41:19;95864.88;;;4.95;64.43
24160;BME280;62385;41.594;23.808;2023-03-20T05:44:11;95868.34;;;5.17;64.40
24160;BME280;62385;41.594;23.808;2023-03-20T05:46:54;95865.06;;;5.24;63.95
24160;BME280;62385;41.594;23.808;2023-03-20T05:49:39;95863.84;;;5.28;64.40
24160;BME280;62385;41.594;23.808;2023-03-20T05:52:05;95864.16;;;5.35;63.75
24160;BME280;62385;41.594;23.808;2023-03-20T05:54:42;95852.38;;;5.29;64.23
24160;BME280;62385;41.594;23.808;2023-03-20T05:57:21;95855.00;;;5.59;62.99
24160;BME280;62385;41.594;23.808;2023-03-20T05:59:58;95856.41;;;5.64;62.98
24160;BME280;62385;41.594;23.808;2023-03-20T06:02:38;95850.91;;;5.76;61.81
24160;BME280;62385;41.594;23.808;2023-03-20T06:05:24;95848.34;;;5.86;62.39
24160;BME280;62385;41.594;23.808;2023-03-20T06:07:51;95851.88;;;6.06;61.50
24160;BME280;62385;41.594;23.808;2023-03-20T06:10:18;95840.91;;;6.00;60.61
24160;BME280;62385;41.594;23.808;2023-03-20T06:12:47;95850.56;;;6.30;60.66
24160;BME280;62385;41.594;23.808;2023-03-20T06:15:13;95850.56;;;6.30;59.57
24160;BME280;62385;41.594;23.808;2023-03-20T06:17:44;95854.59;;;6.34;60.58
24160;BME280;62385;41.594;23.808;2023-03-20T06:20:12;95848.25;;;6.56;58.77
24160;BME280;62385;41.594;23.808;2023-03-20T06:22:40;95856.03;;;6.67;59.62
24160;BME280;62385;41.594;23.808;2023-03-20T06:25:06;95855.63;;;6.91;59.54
24160;BME280;62385;41.594;23.808;2023-03-20T06:27:37;95850.34;;;6.62;60.83
24160;BME280;62385;41.594;23.808;2023-03-20T06:30:05;95853.28;;;6.78;59.53
24160;BME280;62385;41.594;23.808;2023-03-20T06:32:33;95846.03;;;6.80;59.61
24160;BME280;62385;41.594;23.808;2023-03-20T06:35:02;95845.91;;;6.82;59.99
24160;BME280;62385;41.594;23.808;2023-03-20T06:37:30;95847.84;;;6.89;59.42
24160;BME280;62385;41.594;23.808;2023-03-20T06:40:05;95842.84;;;7.15;59.22
24160;BME280;62385;41.594;23.808;2023-03-20T06:42:32;95842.16;;;6.94;59.50
24160;BME280;62385;41.594;23.808;2023-03-20T06:44:59;95842.84;;;7.15;59.24
24160;BME280;62385;41.594;23.808;2023-03-20T06:47:42;95833.56;;;7.58;57.61
24160;BME280;62385;41.594;23.808;2023-03-20T06:50:09;95843.19;;;7.39;58.64
24160;BME280;62385;41.594;23.808;2023-03-20T06:52:34;95838.47;;;7.80;57.69
24160;BME280;62385;41.594;23.808;2023-03-20T06:55:20;95838.91;;;7.75;57.79
24160;BME280;62385;41.594;23.808;2023-03-20T06:58:06;95828.97;;;7.87;57.85
24160;BME280;62385;41.594;23.808;2023-03-20T07:00:32;95828.44;;;7.47;58.36
24160;BME280;62385;41.594;23.808;2023-03-20T07:03:03;95827.59;;;7.83;58.16
24160;BME280;62385;41.594;23.808;2023-03-20T07:05:29;95831.84;;;8.30;57.45
24160;BME280;62385;41.594;23.808;2023-03-20T07:07:56;95828.97;;;7.87;58.03
24160;BME280;62385;41.594;23.808;2023-03-20T07:10:22;95822.28;;;8.47;56.64
24160;BME280;62385;41.594;23.808;2023-03-20T07:12:50;95826.34;;;8.14;57.81
24160;BME280;62385;41.594;23.808;2023-03-20T07:15:16;95817.13;;;8.46;57.56
24160;BME280;62385;41.594;23.808;2023-03-20T07:17:42;95821.75;;;8.44;57.43
24160;BME280;62385;41.594;23.808;2023-03-20T07:20:09;95817.91;;;8.56;58.14
24160;BME280;62385;41.594;23.808;2023-03-20T07:22:35;95806.19;;;8.76;56.81
24160;BME280;62385;41.594;23.808;2023-03-20T07:25:14;95798.88;;;9.13;56.63
24160;BME280;62385;41.594;23.808;2023-03-20T07:27:40;95804.50;;;8.57;57.33
24160;BME280;62385;41.594;23.808;2023-03-20T07:30:06;95809.50;;;8.78;57.29
24160;BME280;62385;41.594;23.808;2023-03-20T07:32:34;95803.59;;;9.02;56.56
24160;BME280;62385;41.594;23.808;2023-03-20T07:35:00;95804.50;;;9.10;55.81
24160;BME280;62385;41.594;23.808;2023-03-20T07:37:27;95810.34;;;8.96;55.31
24160;BME280;62385;41.594;23.808;2023-03-20T07:39:59;95799.69;;;9.32;55.01
24160;BME280;62385;41.594;23.808;2023-03-20T07:42:34;95800.38;;;9.59;54.10
24160;BME280;62385;41.594;23.808;2023-03-20T07:45:10;95804.06;;;9.74;54.49
24160;BME280;62385;41.594;23.808;2023-03-20T07:47:37;95799.09;;;9.46;53.77
24160;BME280;62385;41.594;23.808;2023-03-20T07:50:03;95785.81;;;9.97;53.02
24160;BME280;62385;41.594;23.808;2023-03-20T07:52:30;95789.94;;;9.66;54.56
24160;BME280;62385;41.594;23.808;2023-03-20T07:54:55;95785.03;;;10.13;52.47
24160;BME280;62385;41.594;23.808;2023-03-20T07:57:22;95783.09;;;10.31;51.47
24160;BME280;62385;41.594;23.808;2023-03-20T07:59:47;95783.34;;;10.54;50.75
24160;BME280;62385;41.594;23.808;2023-03-20T08:02:14;95773.53;;;10.46;50.71
24160;BME280;62385;41.594;23.808;2023-03-20T08:04:41;95783.78;;;9.91;51.96
24160;BME280;62385;41.594;23.808;2023-03-20T08:07:07;95771.72;;;10.39;50.27
24160;BME280;62385;41.594;23.808;2023-03-20T08:09:33;95764.13;;;10.68;50.18
24160;BME280;62385;41.594;23.808;2023-03-20T08:11:59;95759.13;;;10.89;48.81
24160;BME280;62385;41.594;23.808;2023-03-20T08:14:24;95759.78;;;10.59;49.74
24160;BME280;62385;41.594;23.808;2023-03-20T08:16:51;95754.66;;;10.90;48.55
24160;BME280;62385;41.594;23.808;2023-03-20T08:19:16;95751.63;;;10.36;49.45
24160;BME280;62385;41.594;23.808;2023-03-20T08:21:42;95760.66;;;10.92;49.29
24160;BME280;62385;41.594;23.808;2023-03-20T08:24:07;95757.16;;;10.99;48.12
24160;BME280;62385;41.594;23.808;2023-03-20T08:26:33;95751.84;;;11.07;48.32
24160;BME280;62385;41.594;23.808;2023-03-20T08:28:59;95759.47;;;10.78;47.82
24160;BME280;62385;41.594;23.808;2023-03-20T08:31:24;95749.19;;;10.75;47.95
24160;BME280;62385;41.594;23.808;2023-03-20T08:33:50;95753.84;;;11.05;46.45
24160;BME280;62385;41.594;23.808;2023-03-20T08:36:17;95754.81;;;11.29;46.07
24160;BME280;62385;41.594;23.808;2023-03-20T08:38:49;95745.28;;;11.58;46.48
24160;BME280;62385;41.594;23.808;2023-03-20T08:41:16;95739.94;;;11.67;46.46
24160;BME280;62385;41.594;23.808;2023-03-20T08:43:42;95733.81;;;11.50;45.97
24160;BME280;62385;41.594;23.808;2023-03-20T08:46:08;95726.69;;;11.97;45.57
24160;BME280;62385;41.594;23.808;2023-03-20T08:48:34;95725.69;;;11.98;45.74
24160;BME280;62385;41.594;23.808;2023-03-20T08:51:00;95726.72;;;11.89;45.65
24160;BME280;62385;41.594;23.808;2023-03-20T08:53:26;95722.94;;;12.15;44.61
24160;BME280;62385;41.594;23.808;2023-03-20T08:55:53;95724.47;;;12.40;44.86
24160;BME280;62385;41.594;23.808;2023-03-20T08:58:19;95715.75;;;12.23;46.00
24160;BME280;62385;41.594;23.808;2023-03-20T09:00:45;95712.81;;;12.41;46.11
24160;BME280;62385;41.594;23.808;2023-03-20T09:03:16;95712.50;;;12.05;46.61
24160;BME280;62385;41.594;23.808;2023-03-20T09:05:43;95705.53;;;12.35;46.10
24160;BME280;62385;41.594;23.808;2023-03-20T09:08:09;95709.16;;;12.42;45.70
24160;BME280;62385;41.594;23.808;2023-03-20T09:10:35;95696.53;;;12.81;44.95
24160;BME280;62385;41.594;23.808;2023-03-20T09:13:00;95701.16;;;12.65;45.59
24160;BME280;62385;41.594;23.808;2023-03-20T09:15:27;95703.91;;;12.79;44.00
24160;BME280;62385;41.594;23.808;2023-03-20T09:17:52;95702.69;;;12.59;43.64
24160;BME280;62385;41.594;23.808;2023-03-20T09:20:19;95687.31;;;13.07;43.57
24160;BME280;62385;41.594;23.808;2023-03-20T09:22:45;95663.41;;;13.36;43.14
24160;BME280;62385;41.594;23.808;2023-03-20T09:25:11;95683.00;;;13.58;43.23
24160;BME280;62385;41.594;23.808;2023-03-20T09:27:38;95686.09;;;13.32;42.82
24160;BME280;62385;41.594;23.808;2023-03-20T09:30:10;95674.31;;;13.12;43.65
24160;BME280;62385;41.594;23.808;2023-03-20T09:32:37;95677.91;;;13.33;42.64
24160;BME280;62385;41.594;23.808;2023-03-20T09:35:03;95674.69;;;13.38;43.50
24160;BME280;62385;41.594;23.808;2023-03-20T09:37:30;95666.13;;;13.86;42.70
24160;BME280;62385;41.594;23.808;2023-03-20T09:39:55;95660.19;;;14.06;41.21
24160;BME280;62385;41.594;23.808;2023-03-20T09:48:32;95644.25;;;14.33;40.66
24160;BME280;62385;41.594;23.808;2023-03-20T09:51:03;95624.91;;;14.46;39.90
24160;BME280;62385;41.594;23.808;2023-03-20T09:53:43;95623.63;;;14.42;39.31
24160;BME280;62385;41.594;23.808;2023-03-20T09:56:19;95613.78;;;14.43;38.79
24160;BME280;62385;41.594;23.808;2023-03-20T09:58:57;95615.41;;;14.86;41.05
24160;BME280;62385;41.594;23.808;2023-03-20T10:01:29;95610.66;;;15.16;39.34
24160;BME280;62385;41.594;23.808;2023-03-20T10:04:03;95599.78;;;15.17;39.53
24160;BME280;62385;41.594;23.808;2023-03-20T10:06:32;95602.97;;;15.41;38.43
24160;BME280;62385;41.594;23.808;2023-03-20T10:08:57;95598.47;;;15.41;38.06
24160;BME280;62385;41.594;23.808;2023-03-20T10:11:53;95590.19;;;15.30;38.56
24160;BME280;62385;41.594;23.808;2023-03-20T10:17:24;95588.13;;;15.66;37.38
24160;BME280;62385;41.594;23.808;2023-03-20T10:20:08;95576.47;;;15.87;37.23
24160;BME280;62385;41.594;23.808;2023-03-20T10:22:37;95567.34;;;15.34;38.31
24160;BME280;62385;41.594;23.808;2023-03-20T10:25:31;95560.88;;;16.16;38.62
24160;BME280;62385;41.594;23.808;2023-03-20T10:36:38;95531.06;;;16.72;37.00
24160;BME280;62385;41.594;23.808;2023-03-20T10:41:54;95522.78;;;16.87;34.36
24160;BME280;62385;41.594;23.808;2023-03-20T10:44:42;95524.19;;;17.22;31.54
24160;BME280;62385;41.594;23.808;2023-03-20T10:47:13;95513.31;;;16.97;33.00
24160;BME280;62385;41.594;23.808;2023-03-20T10:49:51;95511.03;;;16.48;33.14
24160;BME280;62385;41.594;23.808;2023-03-20T10:52:23;95511.41;;;17.11;33.43
24160;BME280;62385;41.594;23.808;2023-03-20T10:54:57;95502.56;;;17.04;33.60
24160;BME280;62385;41.594;23.808;2023-03-20T10:57:28;95496.19;;;17.63;32.53
24160;BME280;62385;41.594;23.808;2023-03-20T10:59:57;95485.16;;;17.77;32.29
24160;BME280;62385;41.594;23.808;2023-03-20T11:02:30;95481.53;;;17.59;32.39
24160;BME280;62385;41.594;23.808;2023-03-20T11:05:00;95481.13;;;17.48;32.86
24160;BME280;62385;41.594;23.808;2023-03-20T11:07:27;95478.63;;;17.60;32.92
24160;BME280;62385;41.594;23.808;2023-03-20T11:12:36;95467.28;;;17.58;33.19
24160;BME280;62385;41.594;23.808;2023-03-20T11:15:31;95466.63;;;18.01;30.52
24160;BME280;62385;41.594;23.808;2023-03-20T11:18:05;95459.00;;;17.53;32.32
24160;BME280;62385;41.594;23.808;2023-03-20T11:20:36;95453.50;;;18.67;30.42
24160;BME280;62385;41.594;23.808;2023-03-20T11:23:05;95443.97;;;18.15;30.45
24160;BME280;62385;41.594;23.808;2023-03-20T11:25:38;95438.47;;;17.78;31.96
24160;BME280;62385;41.594;23.808;2023-03-20T11:28:26;95423.94;;;18.67;29.86
24160;BME280;62385;41.594;23.808;2023-03-20T11:31:23;95427.94;;;18.51;29.47
24160;BME280;62385;41.594;23.808;2023-03-20T11:36:32;95420.88;;;18.63;29.51
24160;BME280;62385;41.594;23.808;2023-03-20T11:39:12;95407.41;;;18.63;30.20
24160;BME280;62385;41.594;23.808;2023-03-20T11:44:39;95402.69;;;19.31;26.70
24160;BME280;62385;41.594;23.808;2023-03-20T11:47:26;95400.44;;;19.47;26.46
24160;BME280;62385;41.594;23.808;2023-03-20T11:49:55;95396.66;;;19.66;28.04
24160;BME280;62385;41.594;23.808;2023-03-20T11:52:24;95387.25;;;19.38;26.78
24160;BME280;62385;41.594;23.808;2023-03-20T11:54:55;95380.78;;;19.46;26.08
24160;BME280;62385;41.594;23.808;2023-03-20T11:57:34;95381.44;;;19.71;26.33
24160;BME280;62385;41.594;23.808;2023-03-20T12:00:05;95381.88;;;19.98;25.21
24160;BME280;62385;41.594;23.808;2023-03-20T12:02:32;95378.81;;;19.83;25.40
24160;BME280;62385;41.594;23.808;2023-03-20T12:04:59;95384.19;;;19.83;25.68
24160;BME280;62385;41.594;23.808;2023-03-20T12:07:45;95375.78;;;19.91;25.67
24160;BME280;62385;41.594;23.808;2023-03-20T12:10:13;95377.72;;;19.84;26.01
24160;BME280;62385;41.594;23.808;2023-03-20T12:15:29;95377.13;;;19.22;23.63
24160;BME280;62385;41.594;23.808;2023-03-20T12:23:11;95356.56;;;19.88;20.48
24160;BME280;62385;41.594;23.808;2023-03-20T12:33:35;95331.66;;;20.39;21.25
24160;BME280;62385;41.594;23.808;2023-03-20T12:36:03;95321.06;;;20.72;22.02
24160;BME280;62385;41.594;23.808;2023-03-20T12:38:31;95320.16;;;21.06;22.71
24160;BME280;62385;41.594;23.808;2023-03-20T12:41:11;95318.47;;;20.77;24.26
24160;BME280;62385;41.594;23.808;2023-03-20T12:43:51;95323.75;;;19.79;24.03
24160;BME280;62385;41.594;23.808;2023-03-20T12:55:18;95292.59;;;21.33;23.03
24160;BME280;62385;41.594;23.808;2023-03-20T12:58:29;95296.19;;;21.10;22.77
24160;BME280;62385;41.594;23.808;2023-03-20T13:01:03;95296.56;;;20.62;22.36
24160;BME280;62385;41.594;23.808;2023-03-20T13:12:04;95276.38;;;21.33;22.56
24160;BME280;62385;41.594;23.808;2023-03-20T13:14:42;95277.31;;;20.70;22.81
24160;BME280;62385;41.594;23.808;2023-03-20T13:28:50;95263.41;;;20.50;21.97
24160;BME280;62385;41.594;23.808;2023-03-20T13:31:33;95256.72;;;20.52;22.23
24160;BME280;62385;41.594;23.808;2023-03-20T13:34:23;95243.06;;;22.05;22.22
24160;BME280;62385;41.594;23.808;2023-03-20T13:36:58;95243.38;;;22.47;21.96
24160;BME280;62385;41.594;23.808;2023-03-20T13:39:34;95249.47;;;21.38;20.97
24160;BME280;62385;41.594;23.808;2023-03-20T13:42:01;95244.13;;;20.98;21.66
24160;BME280;62385;41.594;23.808;2023-03-20T13:44:29;95239.28;;;21.40;22.00
24160;BME280;62385;41.594;23.808;2023-03-20T13:47:08;95226.50;;;21.07;21.33
24160;BME280;62385;41.594;23.808;2023-03-20T13:49:37;95227.94;;;21.26;21.51
24160;BME280;62385;41.594;23.808;2023-03-20T14:00:23;95206.66;;;22.13;20.85
24160;BME280;62385;41.594;23.808;2023-03-20T14:03:25;95215.28;;;21.27;20.48
24160;BME280;62385;41.594;23.808;2023-03-20T14:05:53;95207.69;;;21.74;20.61
24160;BME280;62385;41.594;23.808;2023-03-20T14:11:14;95211.66;;;20.93;22.10
24160;BME280;62385;41.594;23.808;2023-03-20T14:14:09;95202.84;;;22.31;22.08
24160;BME280;62385;41.594;23.808;2023-03-20T14:16:36;95205.69;;;22.41;22.22
24160;BME280;62385;41.594;23.808;2023-03-20T14:19:16;95194.06;;;22.02;22.32
24160;BME280;62385;41.594;23.808;2023-03-20T14:21:45;95196.97;;;22.77;21.98
24160;BME280;62385;41.594;23.808;2023-03-20T14:24:14;95199.06;;;21.77;22.08
24160;BME280;62385;41.594;23.808;2023-03-20T14:26:41;95192.47;;;22.88;21.54
24160;BME280;62385;41.594;23.808;2023-03-20T14:31:39;95185.75;;;22.47;21.95
24160;BME280;62385;41.594;23.808;2023-03-20T14:34:16;95191.16;;;22.90;21.28
24160;BME280;62385;41.594;23.808;2023-03-20T14:37:04;95183.66;;;22.97;21.69
24160;BME280;62385;41.594;23.808;2023-03-20T14:53:08;95195.75;;;23.17;23.74
24160;BME280;62385;41.594;23.808;2023-03-20T15:01:03;95186.69;;;22.79;25.34
24160;BME280;62385;41.594;23.808;2023-03-20T15:03:30;95188.66;;;22.84;26.60
24160;BME280;62385;41.594;23.808;2023-03-20T15:06:03;95186.09;;;22.72;26.39
24160;BME280;62385;41.594;23.808;2023-03-20T15:08:34;95188.50;;;22.30;26.08
24160;BME280;62385;41.594;23.808;2023-03-20T15:11:06;95194.66;;;22.26;26.97
24160;BME280;62385;41.594;23.808;2023-03-20T15:13:35;95195.66;;;22.20;26.88
24160;BME280;62385;41.594;23.808;2023-03-20T15:18:38;95191.09;;;21.87;27.28
24160;BME280;62385;41.594;23.808;2023-03-20T15:21:12;95199.72;;;21.67;28.47
24160;BME280;62385;41.594;23.808;2023-03-20T15:23:41;95197.84;;;21.68;28.99
24160;BME280;62385;41.594;23.808;2023-03-20T15:26:06;95202.50;;;21.39;29.40
24160;BME280;62385;41.594;23.808;2023-03-20T15:28:33;95207.66;;;21.24;30.24
24160;BME280;62385;41.594;23.808;2023-03-20T15:31:02;95211.53;;;20.59;30.13
24160;BME280;62385;41.594;23.808;2023-03-20T15:33:35;95211.44;;;20.54;30.10
24160;BME280;62385;41.594;23.808;2023-03-20T15:36:15;95218.53;;;19.97;31.01
24160;BME280;62385;41.594;23.808;2023-03-20T15:38:43;95226.97;;;19.54;30.88
24160;BME280;62385;41.594;23.808;2023-03-20T15:41:24;95229.84;;;19.00;31.71
24160;BME280;62385;41.594;23.808;2023-03-20T15:43:51;95225.97;;;18.66;33.18
24160;BME280;62385;41.594;23.808;2023-03-20T15:46:16;95233.56;;;18.69;33.90
24160;BME280;62385;41.594;23.808;2023-03-20T15:48:49;95239.13;;;18.56;34.79
24160;BME280;62385;41.594;23.808;2023-03-20T15:51:16;95236.81;;;18.41;35.35
24160;BME280;62385;41.594;23.808;2023-03-20T15:53:45;95243.66;;;18.37;35.45